Vicksburg, MS (39180)

4:55 AM CST on February 08, 2016 (GMT -0600)
Savannah Hills | | Change Station
CLOSE
Current Station
Personal Weather Station
Location: Vicksburg, MS
Elevation: 250 ft
Nearby Weather Stations
Active Advisory: Wind Advisory

Elev 250 ft 32.33 °N, 90.85 °W | Updated 9 minutes ago

Clear
Clear
43.7 °F
Feels Like 44 °F
N
2.7
Wind Variable Wind from West

Today
High -- | Low -- °F
--% Chance of Precip.
Yesterday
High -- | Low -- °F
Precip. -- in
Pressure 30.04 in
Visibility 10.0 miles
Clouds Clear
Windchill 44 °F
Dew Point 37 °F
Humidity 78%
Rainfall 0.00 in
Snow Depth Not available.
6:52 AM 5:42 PM
Waning Crescent, 0% visible
METAR KVKS 081035Z AUTO 22004KT 10SM CLR 07/03 A3004 RMK A01
Pressure 30.04 in
Visibility 10.0 miles
Clouds Clear
Windchill 44 °F
Dew Point 37 °F
Humidity 78%
Rainfall 0.00 in
Snow Depth Not available.
6:52 AM 5:42 PM
Waning Crescent, 0% visible
METAR KVKS 081035Z AUTO 22004KT 10SM CLR 07/03 A3004 RMK A01

10-Day Weather Forecast

Almanac

Astronomy

Feb. 08, 2016 Rise Set
Actual Time
Civil Twilight
Nautical Twilight
Astronomical Twilight
Moon
Length of Visible Light
Length of Day
Tomorrow will be .
, % of the Moon is Illuminated

Today's Extremes

State Highs State Lows

Community

WunderPhotos

Upload Photos

1,891,420 photos uploaded!

WunderBlog® & News

Nearby

Air Quality

  Air Quality AQ Index Pollutant
Not available.

Snow Depth

Station Depth Elevation

Earthquake Activity

City Distance Mag. Time & Date
Minimum magnitude displayed is 2.5.

Coastal Water Temperatures

Place Temperature

Stations

Nearby Weather Stations

Station Location Temp. Windchill Dew Point Humidity Wind Precip. Elev Updated Type
                   

Watches & Warnings

Wind Advisory
Issued: 2:52 AM CST Feb. 8, 2016 – National Weather Service

... Wind Advisory in effect from 10 am this morning to 6 PM CST
this evening...

The National Weather Service in Jackson has issued a Wind
Advisory... which is in effect from 10 am this morning to 6 PM CST
this evening.

* Timing... 10 am to 6 PM

* winds... 25 to 35 mph with gusts from 40 to 45 mph

* impacts... these winds can knock down rotten trees and affect
travel in high profile vehicles

Precautionary/preparedness actions...

A Wind Advisory means that winds of 25 to 35 mph are expected. Winds
this strong can make driving difficult... especially for high
profile vehicles. Use extra caution when driving.

Wind gusts of 40 to 45 mph can bring down large limbs and rotted
trees causing serious injury and property damage. Exercise caution
when outdoors during these conditions.



26